createdAt,value
2023-04-12T00:01:27.680Z,10.87
2023-04-12T00:03:55.898Z,10.76
2023-04-12T00:06:25.386Z,10.65
2023-04-12T00:08:54.174Z,10.57
2023-04-12T00:11:22.625Z,10.53
2023-04-12T00:13:50.666Z,10.48
2023-04-12T00:16:19.654Z,10.45
2023-04-12T00:18:48.951Z,10.43
2023-04-12T00:21:20.316Z,10.43
2023-04-12T00:23:49.651Z,10.46
2023-04-12T00:26:17.659Z,10.49
2023-04-12T00:28:46.022Z,10.52
2023-04-12T00:31:15.045Z,10.53
2023-04-12T00:33:44.125Z,10.51
2023-04-12T00:36:15.948Z,10.50
2023-04-12T00:38:47.711Z,10.48
2023-04-12T00:41:15.818Z,10.45
2023-04-12T00:43:47.362Z,10.40
2023-04-12T00:46:17.745Z,10.35
2023-04-12T00:48:48.086Z,10.31
2023-04-12T00:51:20.653Z,10.27
2023-04-12T00:53:48.973Z,10.27
2023-04-12T00:56:18.075Z,10.25
2023-04-12T00:58:45.973Z,10.24
2023-04-12T01:01:19.461Z,10.24
2023-04-12T01:03:48.333Z,10.21
2023-04-12T01:06:18.753Z,10.17
2023-04-12T01:09:02.425Z,10.14
2023-04-12T01:11:37.422Z,10.10
2023-04-12T01:14:10.120Z,10.06
2023-04-12T01:16:58.799Z,10.04
2023-04-12T01:19:34.925Z,9.98
2023-04-12T01:22:07.516Z,9.92
2023-04-12T01:25:00.313Z,9.86
2023-04-12T01:27:31.007Z,9.82
2023-04-12T01:29:59.259Z,9.81
2023-04-12T01:32:28.877Z,9.76
2023-04-12T01:34:57.955Z,9.71
2023-04-12T01:37:28.846Z,9.66
2023-04-12T01:39:57.294Z,9.61
2023-04-12T01:42:25.608Z,9.55
2023-04-12T01:44:54.140Z,9.50
2023-04-12T01:47:22.615Z,9.49
2023-04-12T01:49:59.668Z,9.48
2023-04-12T01:52:27.558Z,9.43
2023-04-12T01:54:57.659Z,9.37
2023-04-12T01:57:25.730Z,9.33
2023-04-12T01:59:54.407Z,9.30
2023-04-12T02:02:30.086Z,9.27
2023-04-12T02:04:59.794Z,9.28
2023-04-12T02:07:28.001Z,9.28
2023-04-12T02:10:02.879Z,9.26
2023-04-12T02:12:31.736Z,9.24
2023-04-12T02:15:00.305Z,9.21
2023-04-12T02:17:33.498Z,9.19
2023-04-12T02:20:02.473Z,9.18
2023-04-12T02:22:31.632Z,9.17
2023-04-12T02:25:02.325Z,9.15
2023-04-12T02:27:31.681Z,9.12
2023-04-12T02:30:01.124Z,9.12
2023-04-12T02:32:32.909Z,9.10
2023-04-12T02:35:02.823Z,9.06
2023-04-12T02:37:31.860Z,9.07
2023-04-12T02:40:02.477Z,9.08
2023-04-12T02:42:31.854Z,9.09
2023-04-12T02:44:59.999Z,9.12
2023-04-12T02:47:30.775Z,9.11
2023-04-12T02:50:00.184Z,9.09
2023-04-12T02:52:30.045Z,9.08
2023-04-12T02:55:15.916Z,9.06
2023-04-12T02:57:49.481Z,9.03
2023-04-12T03:00:18.756Z,8.99
2023-04-12T03:03:13.044Z,8.96
2023-04-12T03:05:50.205Z,8.97
2023-04-12T03:08:21.670Z,9.00
2023-04-12T03:10:55.551Z,9.01
2023-04-12T03:13:24.723Z,9.00
2023-04-12T03:15:57.140Z,8.99
2023-04-12T03:18:30.102Z,8.96
2023-04-12T03:21:02.561Z,8.95
2023-04-12T03:23:31.405Z,8.95
2023-04-12T03:26:07.717Z,8.93
2023-04-12T03:28:39.281Z,8.92
2023-04-12T03:31:08.240Z,8.91
2023-04-12T03:33:41.614Z,8.91
2023-04-12T03:36:16.800Z,8.90
2023-04-12T03:38:45.816Z,8.87
2023-04-12T03:41:14.193Z,8.83
2023-04-12T03:43:42.801Z,8.82
2023-04-12T03:46:18.151Z,8.81
2023-04-12T03:48:49.304Z,8.81
2023-04-12T03:51:17.550Z,8.83
2023-04-12T03:53:47.235Z,8.81
2023-04-12T03:56:16.897Z,8.82
2023-04-12T03:58:47.179Z,8.82
2023-04-12T04:01:18.032Z,8.81
2023-04-12T04:03:48.574Z,8.80
2023-04-12T04:06:25.916Z,8.78
2023-04-12T04:08:59.869Z,8.77
2023-04-12T04:11:28.340Z,8.78
2023-04-12T04:14:01.975Z,8.81
2023-04-12T04:16:31.067Z,8.83
2023-04-12T04:19:02.244Z,8.86
2023-04-12T04:21:32.332Z,8.89
2023-04-12T04:24:02.488Z,8.89
2023-04-12T04:26:38.600Z,8.88
2023-04-12T04:29:17.026Z,8.89
2023-04-12T04:31:48.330Z,8.88
2023-04-12T04:34:25.783Z,8.89
2023-04-12T04:37:01.398Z,8.91
2023-04-12T04:39:36.448Z,8.94
2023-04-12T04:42:06.894Z,8.97
2023-04-12T04:44:47.926Z,8.98
2023-04-12T04:47:18.310Z,8.96
2023-04-12T04:49:54.353Z,8.95
2023-04-12T04:52:29.521Z,8.92
2023-04-12T04:55:06.902Z,8.92
2023-04-12T04:57:44.607Z,8.91
2023-04-12T05:00:18.431Z,8.91
2023-04-12T05:03:00.597Z,8.91
2023-04-12T05:05:37.421Z,8.95
2023-04-12T05:08:18.322Z,9.00
2023-04-12T05:10:55.953Z,8.97
2023-04-12T05:13:29.443Z,8.95
2023-04-12T05:16:00.348Z,8.94
2023-04-12T05:18:39.470Z,8.95
2023-04-12T05:21:09.568Z,8.96
2023-04-12T05:31:23.365Z,9.03
2023-04-12T05:33:54.631Z,9.02
2023-04-12T05:36:26.329Z,9.03
2023-04-12T05:38:55.650Z,9.04
2023-04-12T05:41:24.582Z,9.02
2023-04-12T05:43:54.146Z,9.02
2023-04-12T05:46:30.727Z,9.01
2023-04-12T05:48:59.472Z,9.01
2023-04-12T05:51:40.522Z,9.00
2023-04-12T05:54:15.984Z,9.01
2023-04-12T05:56:44.118Z,9.04
2023-04-12T05:59:19.734Z,9.07
2023-04-12T06:01:50.083Z,9.09
2023-04-12T06:04:21.135Z,9.12
2023-04-12T06:06:52.561Z,9.10
2023-04-12T06:09:20.964Z,9.06
2023-04-12T06:11:49.009Z,9.03
2023-04-12T06:14:18.366Z,9.03
2023-04-12T06:16:47.557Z,9.04
2023-04-12T06:19:15.500Z,9.03
2023-04-12T06:21:45.229Z,9.05
2023-04-12T06:24:13.330Z,9.08
2023-04-12T06:26:43.219Z,9.10
2023-04-12T06:29:13.394Z,9.12
2023-04-12T06:31:41.841Z,9.13
2023-04-12T06:34:10.171Z,9.11
2023-04-12T06:36:42.135Z,9.11
2023-04-12T06:39:12.364Z,9.14
2023-04-12T06:41:40.756Z,9.15
2023-04-12T06:44:12.017Z,9.16
2023-04-12T06:46:39.982Z,9.17
2023-04-12T06:49:08.438Z,9.18
2023-04-12T06:51:36.760Z,9.19
2023-04-12T06:54:05.150Z,9.21
2023-04-12T06:56:33.559Z,9.24
2023-04-12T06:59:01.534Z,9.26
2023-04-12T07:01:29.803Z,9.24
2023-04-12T07:03:58.773Z,9.22
2023-04-12T07:06:27.911Z,9.19
2023-04-12T07:09:00.272Z,9.19
2023-04-12T07:11:28.872Z,9.19
2023-04-12T07:14:01.489Z,9.22
2023-04-12T07:16:31.540Z,9.24
2023-04-12T07:19:00.740Z,9.26
2023-04-12T07:21:33.367Z,9.31
2023-04-12T07:24:01.721Z,9.37
2023-04-12T07:26:31.470Z,9.44
2023-04-12T07:29:02.909Z,9.46
2023-04-12T07:31:31.145Z,9.50
2023-04-12T07:33:59.176Z,9.53
2023-04-12T07:36:27.506Z,9.53
2023-04-12T07:38:56.212Z,9.52
2023-04-12T07:41:27.332Z,9.50
2023-04-12T07:43:55.643Z,9.46
2023-04-12T07:46:23.751Z,9.44
2023-04-12T07:48:52.433Z,9.43
2023-04-12T07:51:20.903Z,9.43
2023-04-12T07:53:53.338Z,9.43
2023-04-12T07:56:21.701Z,9.47
2023-04-12T07:58:50.358Z,9.50
2023-04-12T08:01:22.791Z,9.50
2023-04-12T08:03:51.866Z,9.49
2023-04-12T08:06:19.963Z,9.49
2023-04-12T08:08:48.222Z,9.51
2023-04-12T08:11:16.525Z,9.55
2023-04-12T08:13:51.869Z,9.57
2023-04-12T08:16:25.080Z,9.59
2023-04-12T08:18:56.575Z,9.58
2023-04-12T08:21:26.097Z,9.60
2023-04-12T08:23:54.150Z,9.63
2023-04-12T08:26:22.649Z,9.64
2023-04-12T08:28:51.520Z,9.66
2023-04-12T08:31:20.751Z,9.66
2023-04-12T08:33:49.659Z,9.65
2023-04-12T08:36:18.887Z,9.66
2023-04-12T08:38:52.938Z,9.66
2023-04-12T08:41:23.694Z,9.70
2023-04-12T08:43:51.952Z,9.72
2023-04-12T08:46:21.158Z,9.75
2023-04-12T08:48:57.872Z,9.76
2023-04-12T08:51:27.153Z,9.77
2023-04-12T08:53:55.668Z,9.78
2023-04-12T08:56:33.540Z,9.81
2023-04-12T08:59:01.936Z,9.83
2023-04-12T09:01:30.144Z,9.86
2023-04-12T09:04:06.472Z,9.92
2023-04-12T09:06:35.678Z,9.96
2023-04-12T09:09:08.144Z,9.99
2023-04-12T09:11:43.321Z,9.99
2023-04-12T09:14:24.429Z,9.96
2023-04-12T09:16:52.897Z,9.97
2023-04-12T09:19:48.246Z,10.00
2023-04-12T09:22:17.091Z,10.03
2023-04-12T09:24:50.183Z,10.05
2023-04-12T09:27:21.078Z,10.03
2023-04-12T09:29:52.410Z,10.02
2023-04-12T09:32:34.047Z,10.01
2023-04-12T09:35:03.002Z,10.02
2023-04-12T09:37:31.481Z,10.02
2023-04-12T09:40:05.309Z,10.02
2023-04-12T09:42:35.072Z,10.05
2023-04-12T09:45:19.522Z,10.06
2023-04-12T09:47:48.345Z,10.05
2023-04-12T09:50:23.693Z,10.00
2023-04-12T09:52:58.561Z,10.03
2023-04-12T09:55:28.438Z,10.10
2023-04-12T09:57:56.563Z,10.14
2023-04-12T10:00:27.285Z,10.16
2023-04-12T10:02:57.015Z,10.21
2023-04-12T10:05:26.551Z,10.25
2023-04-12T10:07:55.611Z,10.26
2023-04-12T10:10:25.050Z,10.26
2023-04-12T10:12:53.057Z,10.21
2023-04-12T10:15:22.289Z,10.20
2023-04-12T10:17:58.875Z,10.16
2023-04-12T10:20:29.222Z,10.14
2023-04-12T10:22:59.751Z,10.14
2023-04-12T10:25:31.245Z,10.15
2023-04-12T10:28:13.338Z,10.18
2023-04-12T10:30:43.038Z,10.18
2023-04-12T10:33:32.217Z,10.17
2023-04-12T10:36:11.278Z,10.19
2023-04-12T10:39:07.700Z,10.23
2023-04-12T10:41:36.353Z,10.28
2023-04-12T10:44:23.330Z,10.30
2023-04-12T10:46:51.586Z,10.30
2023-04-12T10:49:20.226Z,10.31
2023-04-12T10:52:11.573Z,10.33
2023-04-12T10:54:39.665Z,10.38
2023-04-12T10:57:30.250Z,10.40
2023-04-12T10:59:59.704Z,10.43
2023-04-12T11:02:28.821Z,10.46
2023-04-12T11:05:05.684Z,10.46
2023-04-12T11:08:15.958Z,10.51
2023-04-12T11:11:02.350Z,10.52
2023-04-12T11:13:36.201Z,10.49
2023-04-12T11:16:06.468Z,10.46
2023-04-12T11:18:36.649Z,10.46
2023-04-12T11:21:05.326Z,10.47
2023-04-12T11:23:54.733Z,10.52
2023-04-12T11:26:22.914Z,10.58
2023-04-12T11:28:53.441Z,10.60
2023-04-12T11:31:23.392Z,10.57
2023-04-12T11:33:51.730Z,10.55
2023-04-12T11:36:19.906Z,10.57
2023-04-12T11:38:50.390Z,10.60
2023-04-12T11:41:18.921Z,10.59
2023-04-12T11:43:47.418Z,10.59
2023-04-12T11:46:18.740Z,10.62
2023-04-12T11:48:47.387Z,10.65
2023-04-12T11:51:18.929Z,10.66
2023-04-12T11:53:52.379Z,10.65
2023-04-12T11:56:21.027Z,10.68
2023-04-12T11:58:49.274Z,10.72
2023-04-12T12:01:18.161Z,10.72
2023-04-12T12:03:47.374Z,10.71
2023-04-12T12:06:15.733Z,10.65
2023-04-12T12:08:44.087Z,10.66
2023-04-12T12:11:12.107Z,10.67
2023-04-12T12:13:49.449Z,10.67
2023-04-12T12:16:17.828Z,10.67
2023-04-12T12:18:46.957Z,10.66
2023-04-12T12:21:15.223Z,10.67
2023-04-12T12:23:45.862Z,10.66
2023-04-12T12:26:21.169Z,10.65
2023-04-12T12:28:53.198Z,10.65
2023-04-12T12:31:24.015Z,10.64
2023-04-12T12:33:57.325Z,10.65
2023-04-12T12:36:29.480Z,10.69
2023-04-12T12:38:59.814Z,10.71
2023-04-12T12:41:28.012Z,10.74
2023-04-12T12:43:56.540Z,10.77
2023-04-12T12:46:26.469Z,10.78
2023-04-12T12:48:59.749Z,10.78
2023-04-12T12:51:27.976Z,10.78
2023-04-12T12:53:56.543Z,10.82
2023-04-12T12:56:31.544Z,10.85
2023-04-12T12:59:00.053Z,10.86
2023-04-12T13:01:28.429Z,10.89
2023-04-12T13:03:56.917Z,10.93
2023-04-12T13:06:28.256Z,10.94
2023-04-12T13:08:56.615Z,10.96
2023-04-12T13:11:29.909Z,11.01
2023-04-12T13:13:58.967Z,11.07
2023-04-12T13:16:27.239Z,11.12
2023-04-12T13:18:56.222Z,11.12
2023-04-12T13:21:24.991Z,11.16
2023-04-12T13:23:53.162Z,11.16
2023-04-12T13:26:21.088Z,11.15
2023-04-12T13:28:49.188Z,11.22
2023-04-12T13:31:20.778Z,11.29
2023-04-12T13:33:48.910Z,11.30
2023-04-12T13:36:17.146Z,11.31
2023-04-12T13:38:45.922Z,11.27
2023-04-12T13:41:14.243Z,11.24
2023-04-12T13:43:42.894Z,11.21
2023-04-12T13:46:13.208Z,11.19
2023-04-12T13:48:42.144Z,11.19
2023-04-12T13:51:10.390Z,11.23
2023-04-12T13:53:45.608Z,11.29
2023-04-12T13:56:13.796Z,11.32
2023-04-12T13:58:43.004Z,11.34
2023-04-12T14:01:11.055Z,11.36
2023-04-12T14:03:40.876Z,11.39
2023-04-12T14:06:09.922Z,11.45
2023-04-12T14:08:38.406Z,11.49
2023-04-12T14:11:07.940Z,11.51
2023-04-12T14:13:37.029Z,11.48
2023-04-12T14:16:05.363Z,11.46
2023-04-12T14:18:38.076Z,11.45
2023-04-12T14:21:06.562Z,11.48
2023-04-12T14:23:34.831Z,11.46
2023-04-12T14:26:03.739Z,11.48
2023-04-12T14:28:34.979Z,11.47
2023-04-12T14:31:06.222Z,11.45
2023-04-12T14:33:37.883Z,11.47
2023-04-12T14:36:06.299Z,11.48
2023-04-12T14:38:39.023Z,11.52
2023-04-12T14:41:07.384Z,11.60
2023-04-12T14:43:36.068Z,11.62
2023-04-12T14:46:04.224Z,11.62
2023-04-12T14:48:34.142Z,11.64
2023-04-12T14:51:03.687Z,11.64
2023-04-12T14:53:33.289Z,11.67
2023-04-12T14:56:02.767Z,11.64
2023-04-12T14:58:37.109Z,11.61
2023-04-12T15:01:05.539Z,11.59
2023-04-12T15:03:36.078Z,11.58
2023-04-12T15:06:08.847Z,11.60
2023-04-12T15:08:43.331Z,11.65
2023-04-12T15:11:11.672Z,11.67
2023-04-12T15:13:40.068Z,11.64
2023-04-12T15:16:17.719Z,11.59
2023-04-12T15:18:50.572Z,11.61
2023-04-12T15:21:18.760Z,11.58
2023-04-12T15:23:48.672Z,11.60
2023-04-12T15:26:17.312Z,11.61
2023-04-12T15:28:45.535Z,11.60
2023-04-12T15:31:18.965Z,11.57
2023-04-12T15:33:49.775Z,11.57
2023-04-12T15:36:20.556Z,11.53
2023-04-12T15:38:48.561Z,11.53
2023-04-12T15:41:16.680Z,11.57
2023-04-12T15:43:49.498Z,11.56
2023-04-12T15:46:25.896Z,11.56
2023-04-12T15:49:02.559Z,11.58
2023-04-12T15:51:32.448Z,11.56
2023-04-12T15:54:00.667Z,11.62
2023-04-12T15:56:29.994Z,11.67
2023-04-12T15:58:59.277Z,11.76
2023-04-12T16:01:28.619Z,11.81
2023-04-12T16:03:58.128Z,11.84
2023-04-12T16:06:26.965Z,11.86
2023-04-12T16:08:57.671Z,11.85
2023-04-12T16:11:26.070Z,11.84
2023-04-12T16:13:54.991Z,11.86
2023-04-12T16:16:26.015Z,11.87
2023-04-12T16:18:57.491Z,11.88
2023-04-12T16:21:26.820Z,11.85
2023-04-12T16:23:55.620Z,11.86
2023-04-12T16:26:23.778Z,11.87
2023-04-12T16:28:53.564Z,11.90
2023-04-12T16:31:22.975Z,11.93
2023-04-12T16:34:00.697Z,11.96
2023-04-12T16:36:31.542Z,11.99
2023-04-12T16:39:01.680Z,12.00
2023-04-12T16:41:30.046Z,12.00
2023-04-12T16:43:59.509Z,12.01
2023-04-12T16:46:30.227Z,11.94
2023-04-12T16:48:59.774Z,11.82
2023-04-12T16:51:37.408Z,11.72
2023-04-12T16:54:06.571Z,11.65
2023-04-12T16:56:35.568Z,11.61
2023-04-12T16:59:04.796Z,11.58
2023-04-12T17:01:36.216Z,11.56
2023-04-12T17:04:04.926Z,11.56
2023-04-12T17:06:34.368Z,11.56
2023-04-12T17:09:05.939Z,11.57
2023-04-12T17:11:35.436Z,11.55
2023-04-12T17:14:04.164Z,11.50
2023-04-12T17:16:35.685Z,11.45
2023-04-12T17:19:06.892Z,11.41
2023-04-12T17:21:42.515Z,11.40
2023-04-12T17:24:12.531Z,11.35
2023-04-12T17:26:41.155Z,11.31
2023-04-12T17:29:09.536Z,11.27
2023-04-12T17:31:39.768Z,11.19
2023-04-12T17:34:09.391Z,11.09
2023-04-12T17:36:38.437Z,11.08
2023-04-12T17:39:06.812Z,11.11
2023-04-12T17:41:37.501Z,11.15
2023-04-12T17:44:08.390Z,11.12
2023-04-12T17:46:38.465Z,11.06
2023-04-12T17:49:06.987Z,11.02
2023-04-12T17:51:35.234Z,10.94
2023-04-12T17:54:06.878Z,10.84
2023-04-12T17:56:36.349Z,10.74
2023-04-12T17:59:05.939Z,10.69
2023-04-12T18:01:36.679Z,10.67
2023-04-12T18:04:07.372Z,10.65
2023-04-12T18:06:36.716Z,10.62
2023-04-12T18:09:09.597Z,10.60
2023-04-12T18:11:39.158Z,10.59
2023-04-12T18:14:08.826Z,10.58
2023-04-12T18:16:41.003Z,10.56
2023-04-12T18:19:10.241Z,10.54
2023-04-12T18:21:40.023Z,10.55
2023-04-12T18:24:08.450Z,10.56
2023-04-12T18:26:37.127Z,10.54
2023-04-12T18:29:05.103Z,10.47
2023-04-12T18:31:33.305Z,10.42
2023-04-12T18:34:02.237Z,10.40
2023-04-12T18:36:31.721Z,10.35
2023-04-12T18:38:59.859Z,10.33
2023-04-12T18:41:29.051Z,10.32
2023-04-12T18:43:57.784Z,10.31
2023-04-12T18:46:27.276Z,10.30
2023-04-12T18:48:58.791Z,10.30
2023-04-12T18:51:26.935Z,10.29
2023-04-12T18:53:54.950Z,10.29
2023-04-12T18:56:25.000Z,10.28
2023-04-12T18:58:55.712Z,10.30
2023-04-12T19:01:25.273Z,10.31
2023-04-12T19:03:55.045Z,10.33
2023-04-12T19:06:23.896Z,10.37
2023-04-12T19:08:52.235Z,10.41
2023-04-12T19:11:24.801Z,10.45
2023-04-12T19:13:56.335Z,10.46
2023-04-12T19:16:25.233Z,10.41
2023-04-12T19:18:54.713Z,10.39
2023-04-12T19:21:24.229Z,10.39
2023-04-12T19:23:53.346Z,10.39
2023-04-12T19:26:23.202Z,10.40
2023-04-12T19:28:55.626Z,10.38
2023-04-12T19:31:24.003Z,10.34
2023-04-12T19:33:56.635Z,10.35
2023-04-12T19:36:25.803Z,10.33
2023-04-12T19:38:55.039Z,10.35
2023-04-12T19:41:24.137Z,10.37
2023-04-12T19:43:54.653Z,10.38
2023-04-12T19:46:22.710Z,10.34
2023-04-12T19:48:51.452Z,10.30
2023-04-12T19:51:19.725Z,10.27
2023-04-12T19:53:50.560Z,10.28
2023-04-12T19:56:18.701Z,10.27
2023-04-12T19:58:47.896Z,10.25
2023-04-12T20:01:16.139Z,10.28
2023-04-12T20:03:44.923Z,10.32
2023-04-12T20:06:13.303Z,10.35
2023-04-12T20:08:41.586Z,10.38
2023-04-12T20:11:09.946Z,10.39
2023-04-12T20:13:39.938Z,10.35
2023-04-12T20:16:10.096Z,10.31
2023-04-12T20:18:38.199Z,10.32
2023-04-12T20:21:10.112Z,10.32
2023-04-12T20:23:38.244Z,10.35
2023-04-12T20:26:06.467Z,10.39
2023-04-12T20:28:34.603Z,10.41
2023-04-12T20:31:03.030Z,10.40
2023-04-12T20:33:31.242Z,10.39
2023-04-12T20:35:59.718Z,10.35
2023-04-12T20:38:30.820Z,10.32
2023-04-12T20:41:01.538Z,10.32
2023-04-12T20:43:31.958Z,10.38
2023-04-12T20:46:00.975Z,10.44
2023-04-12T20:48:29.931Z,10.45
2023-04-12T20:50:58.184Z,10.47
2023-04-12T20:53:27.277Z,10.45
2023-04-12T20:55:56.452Z,10.43
2023-04-12T20:58:34.514Z,10.42
2023-04-12T21:01:05.229Z,10.41
2023-04-12T21:03:34.521Z,10.40
2023-04-12T21:06:02.612Z,10.40
2023-04-12T21:08:33.845Z,10.40
2023-04-12T21:11:02.259Z,10.43
2023-04-12T21:13:30.512Z,10.44
2023-04-12T21:15:59.013Z,10.41
2023-04-12T21:18:28.351Z,10.36
2023-04-12T21:20:58.621Z,10.33
2023-04-12T21:23:30.643Z,10.32
2023-04-12T21:25:59.282Z,10.32
2023-04-12T21:28:29.774Z,10.33
2023-04-12T21:30:58.627Z,10.34
2023-04-12T21:33:26.759Z,10.36
2023-04-12T21:35:54.787Z,10.40
2023-04-12T21:38:23.284Z,10.41
2023-04-12T21:40:51.684Z,10.38
2023-04-12T21:43:21.169Z,10.35
2023-04-12T21:45:49.379Z,10.33
2023-04-12T21:48:18.031Z,10.30
2023-04-12T21:50:46.223Z,10.30
2023-04-12T21:53:14.348Z,10.32
2023-04-12T21:55:42.814Z,10.34
2023-04-12T21:58:11.697Z,10.35
2023-04-12T22:00:42.920Z,10.37
2023-04-12T22:03:11.656Z,10.36
2023-04-12T22:05:57.164Z,10.38
2023-04-12T22:08:33.220Z,10.39
2023-04-12T22:11:01.511Z,10.40
2023-04-12T22:13:30.981Z,10.42
2023-04-12T22:16:00.872Z,10.40
2023-04-12T22:18:32.056Z,10.39
2023-04-12T22:21:04.154Z,10.40
2023-04-12T22:23:32.156Z,10.39
2023-04-12T22:26:00.315Z,10.41
2023-04-12T22:28:33.016Z,10.39
2023-04-12T22:31:02.401Z,10.42
2023-04-12T22:33:30.750Z,10.43
2023-04-12T22:35:59.618Z,10.41
2023-04-12T22:38:29.425Z,10.41
2023-04-12T22:41:02.170Z,10.42
2023-04-12T22:43:38.071Z,10.44
2023-04-12T22:46:08.222Z,10.49
2023-04-12T22:48:36.479Z,10.48
2023-04-12T22:51:11.816Z,10.37
2023-04-12T22:53:40.632Z,10.30
2023-04-12T22:56:09.142Z,10.26
2023-04-12T22:58:37.600Z,10.22
2023-04-12T23:01:05.859Z,10.21
2023-04-12T23:03:35.045Z,10.20
2023-04-12T23:06:07.743Z,10.25
2023-04-12T23:08:35.946Z,10.28
2023-04-12T23:11:04.880Z,10.27
2023-04-12T23:13:34.879Z,10.21
2023-04-12T23:16:08.499Z,10.17
2023-04-12T23:18:37.894Z,10.17
2023-04-12T23:21:06.696Z,10.17
2023-04-12T23:23:39.415Z,10.19
2023-04-12T23:26:10.822Z,10.19
2023-04-12T23:28:40.404Z,10.20
2023-04-12T23:31:08.813Z,10.20
2023-04-12T23:33:43.274Z,10.20
2023-04-12T23:36:11.825Z,10.18
2023-04-12T23:38:40.888Z,10.14
2023-04-12T23:41:10.190Z,10.08
2023-04-12T23:43:38.178Z,10.03
2023-04-12T23:46:06.913Z,10.03
2023-04-12T23:48:36.361Z,10.05
2023-04-12T23:51:04.778Z,10.09
2023-04-12T23:53:33.876Z,10.14
2023-04-12T23:56:02.044Z,10.18
2023-04-12T23:58:30.608Z,10.21
